»·PEaware :: N347CD KSAN-KSAN

N347CD :: KSAN-KSAN

FLIGHT INFORMATION

Flight Status: Arrived
Operator: Privately registered:
United States
More flights under this callsign
Pilot: Daniel C. (3642)
Aircraft: CIRRUS SR-22
(SR22)
More flights by this aircraft type
Origin: KSAN San Diego Intl-Lindbergh
United States
Destination: KSAN San Diego Intl-Lindbergh
United States
More flights between these airports :: More routes between these airports
Route: V66 RYAHH
File this flight plan on PilotEdge
Remarks: +CW / MZB.ILSyRWY09
Altitude:
(Current/Filed)
5,000ft
Speed:
(Current/Filed)
160kts
Departed: 30-Dec-19 10:14 AM
Arrived: 30-Dec-19 10:36 AM
Distance/Time
Traveled:
0nm/0:22
Distance/Time
To Go:
Arrived

Flight Plot

Page will automatically refresh every two minutes.


Map Options




Map Legend


Flown Route
Filed Route
Departure Airport
Arrival Airport
Navaid (VOR, NDB)
Fix

Horizontal Profiles

Position Reports

Time Latitude Longitude Heading Altitude Ground
Speed
30-Dec-19 09:51 32.732415 -117.176636 194 19ft 0kts
30-Dec-19 09:52 32.732415 -117.176636 194 19ft 0kts
30-Dec-19 09:53 32.732415 -117.176636 194 19ft 0kts
30-Dec-19 09:54 32.732415 -117.176636 194 19ft 0kts
30-Dec-19 09:55 32.732415 -117.176636 194 19ft 0kts
30-Dec-19 09:56 32.732415 -117.176636 194 19ft 0kts
30-Dec-19 09:57 32.732415 -117.176636 194 19ft 0kts
30-Dec-19 09:58 32.732415 -117.176636 194 19ft 0kts
30-Dec-19 09:59 32.732415 -117.176636 194 19ft 0kts
30-Dec-19 10:00 32.732415 -117.176636 194 19ft 0kts
30-Dec-19 10:01 32.732415 -117.176636 194 19ft 0kts
30-Dec-19 10:02 32.732415 -117.176636 194 19ft 0kts
30-Dec-19 10:03 32.732415 -117.176636 194 19ft 0kts
30-Dec-19 10:04 32.732415 -117.176636 194 19ft 0kts
30-Dec-19 10:05 32.732415 -117.176636 194 19ft 0kts
30-Dec-19 10:06 32.732415 -117.176636 194 19ft 0kts
30-Dec-19 10:07 32.732415 -117.176636 194 19ft 0kts
30-Dec-19 10:08 32.732415 -117.176636 194 19ft 0kts
30-Dec-19 10:09 32.732415 -117.176636 194 19ft 0kts
30-Dec-19 10:10 32.732086 -117.176639 175 19ft 7kts
30-Dec-19 10:11 32.730975 -117.175548 137 19ft 0kts
30-Dec-19 10:12 32.730505 -117.177078 286 19ft 38kts
30-Dec-19 10:13 32.736638 -117.205424 303 771ft 108kts
30-Dec-19 10:14 32.760277 -117.228954 321 1928ft 107kts
30-Dec-19 10:15 32.782887 -117.250696 320 3053ft 106kts
30-Dec-19 10:16 32.806603 -117.256707 63 4000ft 114kts
30-Dec-19 10:17 32.807076 -117.217791 100 5023ft 119kts
30-Dec-19 10:18 32.798294 -117.171268 102 4981ft 153kts
30-Dec-19 10:19 32.789181 -117.122994 102 4983ft 148kts
30-Dec-19 10:20 32.780079 -117.074995 102 4983ft 149kts
30-Dec-19 10:21 32.771636 -117.026501 100 4983ft 150kts
30-Dec-19 10:22 32.763264 -116.978082 101 4983ft 149kts
30-Dec-19 10:23 32.754899 -116.929502 100 4983ft 149kts
30-Dec-19 10:24 32.746365 -116.882092 113 4977ft 144kts
30-Dec-19 10:25 32.712064 -116.878082 185 4982ft 129kts
30-Dec-19 10:26 32.682949 -116.897359 250 4630ft 142kts
30-Dec-19 10:27 32.672804 -116.939796 283 3923ft 122kts
30-Dec-19 10:28 32.681610 -116.976705 286 3531ft 122kts
30-Dec-19 10:29 32.691006 -117.015264 287 3076ft 118kts
30-Dec-19 10:30 32.700408 -117.053900 286 2494ft 124kts
30-Dec-19 10:31 32.709816 -117.092184 286 1811ft 116kts
30-Dec-19 10:32 32.717999 -117.125802 286 1157ft 103kts
30-Dec-19 10:33 32.725018 -117.154675 286 584ft 101kts
30-Dec-19 10:34 32.731771 -117.182172 286 24ft 68kts
30-Dec-19 10:35 32.733732 -117.188120 8 19ft 6kts
30-Dec-19 10:36 32.734727 -117.187189 94 19ft 9kts
30-Dec-19 10:37 32.734559 -117.186402 104 19ft 0kts
30-Dec-19 10:38 32.734559 -117.186402 104 19ft 0kts
30-Dec-19 10:39 32.734559 -117.186402 104 19ft 0kts
30-Dec-19 10:40 32.734559 -117.186402 104 19ft 0kts
30-Dec-19 10:41 32.734559 -117.186402 104 19ft 0kts
30-Dec-19 10:42 32.734557 -117.186389 101 19ft 0kts
30-Dec-19 10:43 32.734557 -117.186389 101 19ft 0kts
30-Dec-19 10:44 32.734557 -117.186389 101 19ft 0kts
30-Dec-19 10:45 32.734557 -117.186389 101 19ft 0kts
30-Dec-19 10:46 32.734557 -117.186389 101 19ft 0kts

Navigation Log

Ident Type
Flight plan parsing failed, navigation log unavailable